Terminal Aerodrome Forecast
Issued by NWS Grand Forks, ND

Home | Current Version | Previous Version | Text Only | Print | Product List | Glossary On
Versions: 1 2 3 4 5 6 7 8 9 10 11 12 13 14 15 16 17 18 19
000
FTUS43 KFGF 021939 AAA
TAFFAR
TAF AMD
KFAR 021939Z 0220/0318 17016G25KT P6SM SCT060
     FM022300 16012KT P6SM VCTS BKN040CB
      TEMPO 0223/0303 4SM -TSRA BKN025CB
     FM030400 13010KT P6SM BKN035
     FM030900 VRB06KT P6SM BKN015
     FM031500 34008KT P6SM OVC015=

USA.gov is the U.S. government's official web portal to all federal, state and local government web resources and services.